Time;durP1;ratioP1;P1;durP2;ratioP2;P2;SDS_P1;SDS_P2;PMS_P1;PMS_P2;Temp;Humidity;BMP_temperature;BMP_pressure;BME280_temperature;BME280_humidity;BME280_pressure;Samples;Min_cycle;Max_cycle;Signal;HPM_P1;HPM_P2
2022/07/09 00:00:17;;;;;;;1999.90;999.90;;;;;;;;;;5051735;27;20426;-76
2022/07/09 00:02:45;;;;;;;1999.90;999.90;;;;;;;;;;5041086;27;20391;-76
2022/07/09 00:05:13;;;;;;;1999.90;999.90;;;;;;;;;;5042510;27;20932;-77
2022/07/09 00:07:44;;;;;;;1999.90;999.90;;;;;;;;;;5040484;27;21237;-76
2022/07/09 00:10:12;;;;;;;1999.90;999.90;;;;;;;;;;5043496;27;20931;-76
2022/07/09 00:12:41;;;;;;;1999.90;999.90;;;;;;;;;;5039887;27;20418;-75
2022/07/09 00:15:09;;;;;;;1999.90;999.90;;;;;;;;;;5046337;27;20402;-75
2022/07/09 00:17:37;;;;;;;1999.90;999.90;;;;;;;;;;5051531;27;21119;-76
2022/07/09 00:20:05;;;;;;;1999.90;999.90;;;;;;;;;;5046741;27;20454;-75
2022/07/09 00:22:33;;;;;;;1999.90;999.90;;;;;;;;;;5047052;27;20395;-77
2022/07/09 00:25:01;;;;;;;1999.90;999.90;;;;;;;;;;5047641;27;20411;-75
2022/07/09 00:27:29;;;;;;;1999.90;999.90;;;;;;;;;;5044964;27;20407;-75
2022/07/09 00:29:58;;;;;;;1999.90;999.90;;;;;;;;;;5052643;27;20412;-75
2022/07/09 00:32:26;;;;;;;1999.90;999.90;;;;;;;;;;5042749;27;21520;-76
2022/07/09 00:34:54;;;;;;;1999.90;999.90;;;;;;;;;;5049843;27;20413;-75
2022/07/09 00:37:22;;;;;;;1999.90;999.90;;;;;;;;;;5037397;27;20425;-75
2022/07/09 00:39:49;;;;;;;1999.90;999.90;;;;;;;;;;5046111;27;20441;-75
2022/07/09 00:42:17;;;;;;;1999.90;999.90;;;;;;;;;;5042182;27;20406;-76
2022/07/09 00:44:46;;;;;;;1999.90;999.90;;;;;;;;;;5046861;27;20918;-76
2022/07/09 00:47:15;;;;;;;1999.90;999.90;;;;;;;;;;5043225;27;20712;-76
2022/07/09 00:49:43;;;;;;;1999.90;999.90;;;;;;;;;;5043204;27;20862;-75
2022/07/09 00:52:12;;;;;;;1999.90;999.90;;;;;;;;;;5045231;27;20455;-75
2022/07/09 00:54:40;;;;;;;1999.90;999.90;;;;;;;;;;5048692;27;20415;-75
2022/07/09 00:57:09;;;;;;;1999.90;999.90;;;;;;;;;;5045677;27;20405;-75
2022/07/09 00:59:38;;;;;;;1999.90;999.90;;;;;;;;;;5053144;27;20397;-76
2022/07/09 01:02:07;;;;;;;1999.90;999.90;;;;;;;;;;5048584;27;20405;-75
2022/07/09 01:04:36;;;;;;;1999.90;999.90;;;;;;;;;;5047444;27;20494;-75
2022/07/09 01:07:04;;;;;;;1999.90;999.90;;;;;;;;;;5029587;27;20412;-77
2022/07/09 01:09:32;;;;;;;1999.90;999.90;;;;;;;;;;5049394;27;20430;-76
2022/07/09 01:12:00;;;;;;;1999.90;999.90;;;;;;;;;;5041331;27;20442;-76
2022/07/09 01:14:28;;;;;;;1999.90;999.90;;;;;;;;;;5037642;27;20485;-75
2022/07/09 01:16:59;;;;;;;1999.90;999.90;;;;;;;;;;5061611;27;20399;-76
2022/07/09 01:19:27;;;;;;;1999.90;999.90;;;;;;;;;;5045015;27;20408;-75
2022/07/09 01:21:57;;;;;;;1999.90;999.90;;;;;;;;;;5048971;27;20478;-77
2022/07/09 01:24:32;;;;;;;1999.90;999.90;;;;;;;;;;5034657;27;20418;-74
2022/07/09 01:27:00;;;;;;;1999.90;999.90;;;;;;;;;;5049946;27;20422;-76
2022/07/09 01:29:28;;;;;;;1999.90;999.90;;;;;;;;;;5048232;27;20410;-76
2022/07/09 01:31:56;;;;;;;1999.90;999.90;;;;;;;;;;5047543;27;20404;-75
2022/07/09 01:34:23;;;;;;;1999.90;999.90;;;;;;;;;;5031484;27;20419;-76
2022/07/09 01:36:51;;;;;;;1999.90;999.90;;;;;;;;;;5030119;27;20497;-75
2022/07/09 01:39:21;;;;;;;1999.90;999.90;;;;;;;;;;5027270;27;20414;-75
2022/07/09 01:41:48;;;;;;;1999.90;999.90;;;;;;;;;;5017493;27;20415;-76
2022/07/09 01:44:16;;;;;;;1999.90;999.90;;;;;;;;;;5045275;27;20423;-76
2022/07/09 01:46:44;;;;;;;1999.90;999.90;;;;;;;;;;5046750;27;20413;-76
2022/07/09 01:49:11;;;;;;;1999.90;999.90;;;;;;;;;;5054083;27;20420;-76
2022/07/09 01:51:39;;;;;;;1999.90;999.90;;;;;;;;;;5046422;27;20435;-77
2022/07/09 01:54:07;;;;;;;1999.90;999.90;;;;;;;;;;5051171;27;20511;-77
2022/07/09 01:56:36;;;;;;;1999.90;999.90;;;;;;;;;;5046692;27;20490;-76
2022/07/09 01:59:04;;;;;;;1999.90;999.90;;;;;;;;;;5048132;27;20493;-76
2022/07/09 02:01:32;;;;;;;1999.90;999.90;;;;;;;;;;5050763;27;20510;-76
2022/07/09 02:04:00;;;;;;;1999.90;999.90;;;;;;;;;;5047459;27;20419;-76
2022/07/09 02:06:28;;;;;;;1999.90;999.90;;;;;;;;;;5046796;27;21149;-76
2022/07/09 02:08:55;;;;;;;1999.90;999.90;;;;;;;;;;5036751;27;20430;-77
2022/07/09 02:11:23;;;;;;;1999.90;999.90;;;;;;;;;;5057198;27;20412;-77
2022/07/09 02:13:52;;;;;;;1999.90;999.90;;;;;;;;;;5045407;27;20418;-77
2022/07/09 02:16:35;;;;;;;1999.90;999.90;;;;;;;;;;5047627;27;20399;-76
2022/07/09 02:19:03;;;;;;;1999.90;999.90;;;;;;;;;;5047317;27;20406;-77
2022/07/09 02:21:31;;;;;;;1999.90;999.90;;;;;;;;;;5048005;27;20413;-77
2022/07/09 02:23:59;;;;;;;1999.90;999.90;;;;;;;;;;5061059;27;20410;-76
2022/07/09 02:26:29;;;;;;;1999.90;999.90;;;;;;;;;;5051851;27;20915;-76
2022/07/09 02:28:58;;;;;;;1999.90;999.90;;;;;;;;;;5058287;27;20415;-76
2022/07/09 02:31:25;;;;;;;1999.90;999.90;;;;;;;;;;5057828;27;20398;-76
2022/07/09 02:33:53;;;;;;;1999.90;999.90;;;;;;;;;;5051593;27;20419;-76
2022/07/09 02:36:21;;;;;;;1999.90;999.90;;;;;;;;;;5043957;27;20427;-76
2022/07/09 02:38:49;;;;;;;1999.90;999.90;;;;;;;;;;5026447;27;20411;-76
2022/07/09 02:41:17;;;;;;;1999.90;999.90;;;;;;;;;;5041101;27;20413;-76
2022/07/09 02:43:45;;;;;;;1999.90;999.90;;;;;;;;;;5035735;27;20406;-75
2022/07/09 02:46:15;;;;;;;1999.90;999.90;;;;;;;;;;5049228;27;20502;-75
2022/07/09 02:48:43;;;;;;;1999.90;999.90;;;;;;;;;;5050084;27;20392;-75
2022/07/09 02:51:10;;;;;;;1999.90;999.90;;;;;;;;;;5047890;27;20418;-75
2022/07/09 02:53:38;;;;;;;1999.90;999.90;;;;;;;;;;5059365;27;20414;-75
2022/07/09 02:56:06;;;;;;;1999.90;999.90;;;;;;;;;;5050590;27;20564;-74
2022/07/09 02:58:34;;;;;;;1999.90;999.90;;;;;;;;;;5052001;27;21193;-75
2022/07/09 03:01:05;;;;;;;1999.90;999.90;;;;;;;;;;5048784;27;20853;-75
2022/07/09 03:03:35;;;;;;;1999.90;999.90;;;;;;;;;;5048956;27;20880;-76
2022/07/09 03:06:03;;;;;;;1999.90;999.90;;;;;;;;;;5054088;27;20753;-75
2022/07/09 03:08:31;;;;;;;1999.90;999.90;;;;;;;;;;5043201;27;22139;-76
2022/07/09 03:10:59;;;;;;;1999.90;999.90;;;;;;;;;;5044646;27;20489;-75
2022/07/09 03:13:27;;;;;;;1999.90;999.90;;;;;;;;;;5055123;27;20430;-75
2022/07/09 03:15:55;;;;;;;1999.90;999.90;;;;;;;;;;5037583;27;20422;-76
2022/07/09 03:18:23;;;;;;;1999.90;999.90;;;;;;;;;;5044604;27;20484;-75
2022/07/09 03:20:52;;;;;;;1999.90;999.90;;;;;;;;;;5046141;27;20480;-75
2022/07/09 03:23:20;;;;;;;1999.90;999.90;;;;;;;;;;5049542;27;20499;-76
2022/07/09 03:25:48;;;;;;;1999.90;999.90;;;;;;;;;;5053055;27;20398;-75
2022/07/09 03:28:15;;;;;;;1999.90;999.90;;;;;;;;;;5048588;27;20400;-75
2022/07/09 03:30:43;;;;;;;1999.90;999.90;;;;;;;;;;5051708;27;20395;-75
2022/07/09 03:33:11;;;;;;;1999.90;999.90;;;;;;;;;;5049425;27;20478;-76
2022/07/09 03:35:39;;;;;;;1999.90;999.90;;;;;;;;;;5051393;27;20459;-75
2022/07/09 03:38:08;;;;;;;1999.90;999.90;;;;;;;;;;5054577;27;20815;-76
2022/07/09 03:40:36;;;;;;;1999.90;999.90;;;;;;;;;;5055696;27;20355;-75
2022/07/09 03:43:04;;;;;;;1999.90;999.90;;;;;;;;;;5059325;27;20439;-75
2022/07/09 03:45:31;;;;;;;1999.90;999.90;;;;;;;;;;5056710;27;20455;-76
2022/07/09 03:47:59;;;;;;;1999.90;999.90;;;;;;;;;;5052138;27;20386;-75
2022/07/09 03:50:27;;;;;;;1999.90;999.90;;;;;;;;;;5050793;27;20873;-76
2022/07/09 03:52:55;;;;;;;1999.90;999.90;;;;;;;;;;5052446;27;20399;-76
2022/07/09 03:55:24;;;;;;;1999.90;999.90;;;;;;;;;;5053469;27;20410;-75
2022/07/09 03:57:52;;;;;;;1999.90;999.90;;;;;;;;;;5044464;27;20419;-76
2022/07/09 04:00:20;;;;;;;1999.90;999.90;;;;;;;;;;5034335;27;20403;-77
2022/07/09 04:02:47;;;;;;;1999.90;999.90;;;;;;;;;;5040229;27;21006;-73
2022/07/09 04:05:15;;;;;;;1999.90;999.90;;;;;;;;;;5048651;27;20397;-74
2022/07/09 04:07:43;;;;;;;1999.90;999.90;;;;;;;;;;5039785;27;20423;-75
2022/07/09 04:10:11;;;;;;;1999.90;999.90;;;;;;;;;;5050011;27;20900;-76
2022/07/09 04:12:40;;;;;;;1999.90;999.90;;;;;;;;;;5041430;27;20928;-73
2022/07/09 04:15:08;;;;;;;1999.90;999.90;;;;;;;;;;5038338;27;20370;-76
2022/07/09 04:17:36;;;;;;;1999.90;999.90;;;;;;;;;;5040727;27;20856;-75
2022/07/09 04:20:04;;;;;;;1999.90;999.90;;;;;;;;;;5042644;27;20932;-76
2022/07/09 04:22:32;;;;;;;1999.90;999.90;;;;;;;;;;5057782;27;20522;-74
2022/07/09 04:25:00;;;;;;;1999.90;999.90;;;;;;;;;;5060591;27;20410;-75
2022/07/09 04:27:28;;;;;;;1999.90;999.90;;;;;;;;;;5057842;27;20427;-75
2022/07/09 04:29:57;;;;;;;1999.90;999.90;;;;;;;;;;5054636;27;20414;-75
2022/07/09 04:32:25;;;;;;;1999.90;999.90;;;;;;;;;;5044043;27;20428;-75
2022/07/09 04:34:53;;;;;;;1999.90;999.90;;;;;;;;;;5040916;27;20894;-75
2022/07/09 04:37:21;;;;;;;1999.90;999.90;;;;;;;;;;5057792;27;20477;-76
2022/07/09 04:39:49;;;;;;;1999.90;999.90;;;;;;;;;;5046322;27;20451;-76
2022/07/09 04:42:16;;;;;;;1999.90;999.90;;;;;;;;;;5033351;27;20451;-76
2022/07/09 04:44:44;;;;;;;1999.90;999.90;;;;;;;;;;5038297;27;20409;-76
2022/07/09 04:47:13;;;;;;;1999.90;999.90;;;;;;;;;;5033829;27;20414;-76
2022/07/09 04:49:41;;;;;;;1999.90;999.90;;;;;;;;;;5041166;27;23285;-75
2022/07/09 04:52:09;;;;;;;1999.90;999.90;;;;;;;;;;5046102;27;20414;-75
2022/07/09 04:54:36;;;;;;;1999.90;999.90;;;;;;;;;;5046216;27;20387;-75
2022/07/09 04:57:04;;;;;;;1999.90;999.90;;;;;;;;;;5045609;27;21626;-77
2022/07/09 04:59:32;;;;;;;1999.90;999.90;;;;;;;;;;5043234;27;20975;-76
2022/07/09 05:02:00;;;;;;;1999.90;999.90;;;;;;;;;;5044799;27;20935;-76
2022/07/09 05:04:29;;;;;;;1999.90;999.90;;;;;;;;;;5047368;27;20391;-76
2022/07/09 05:06:57;;;;;;;1999.90;999.90;;;;;;;;;;5047277;27;20986;-76
2022/07/09 05:09:25;;;;;;;1999.90;999.90;;;;;;;;;;5048325;27;20387;-76
2022/07/09 05:11:54;;;;;;;1999.90;999.90;;;;;;;;;;5040790;27;20407;-75
2022/07/09 05:14:22;;;;;;;1999.90;999.90;;;;;;;;;;5036963;27;20490;-74
2022/07/09 05:16:49;;;;;;;1999.90;999.90;;;;;;;;;;5035081;27;20406;-75
2022/07/09 05:19:17;;;;;;;1999.90;999.90;;;;;;;;;;5034437;27;20468;-75
2022/07/09 05:21:46;;;;;;;1999.90;999.90;;;;;;;;;;5039035;27;20430;-76
2022/07/09 05:24:14;;;;;;;1999.90;999.90;;;;;;;;;;5043408;27;20457;-75
2022/07/09 05:26:42;;;;;;;1999.90;999.90;;;;;;;;;;5043797;27;20533;-75
2022/07/09 05:29:10;;;;;;;1999.90;999.90;;;;;;;;;;5046828;27;20407;-76
2022/07/09 05:31:38;;;;;;;1999.90;999.90;;;;;;;;;;5035748;27;20441;-75
2022/07/09 05:34:07;;;;;;;1999.90;999.90;;;;;;;;;;5040209;27;20412;-75
2022/07/09 05:36:36;;;;;;;1999.90;999.90;;;;;;;;;;5041902;27;20414;-75
2022/07/09 05:39:07;;;;;;;1999.90;999.90;;;;;;;;;;5041813;27;20409;-75
2022/07/09 05:41:34;;;;;;;1999.90;999.90;;;;;;;;;;5040815;27;20892;-75
2022/07/09 05:44:03;;;;;;;1999.90;999.90;;;;;;;;;;5034482;27;20393;-75
2022/07/09 05:46:31;;;;;;;1999.90;999.90;;;;;;;;;;5021108;27;20405;-74
2022/07/09 05:48:59;;;;;;;1999.90;999.90;;;;;;;;;;5035971;27;20397;-75
2022/07/09 05:51:26;;;;;;;1999.90;999.90;;;;;;;;;;5029606;27;20421;-74
2022/07/09 05:53:55;;;;;;;1999.90;999.90;;;;;;;;;;5039482;27;20425;-73
2022/07/09 05:56:24;;;;;;;1999.90;999.90;;;;;;;;;;5033404;27;20422;-74
2022/07/09 05:58:52;;;;;;;1999.90;999.90;;;;;;;;;;5036181;27;20396;-75
2022/07/09 06:01:20;;;;;;;1999.90;999.90;;;;;;;;;;5038727;27;20503;-75
2022/07/09 06:03:53;;;;;;;1999.90;999.90;;;;;;;;;;5031221;27;20527;-75
2022/07/09 06:06:21;;;;;;;1999.90;999.90;;;;;;;;;;5034735;27;20899;-75
2022/07/09 06:08:49;;;;;;;1999.90;999.90;;;;;;;;;;5047159;27;20897;-74
2022/07/09 06:11:17;;;;;;;1999.90;999.90;;;;;;;;;;5042611;27;20405;-73
2022/07/09 06:13:46;;;;;;;1999.90;999.90;;;;;;;;;;5041776;27;20394;-73
2022/07/09 06:16:14;;;;;;;1999.90;999.90;;;;;;;;;;5039143;27;21756;-73
2022/07/09 06:18:42;;;;;;;1999.90;999.90;;;;;;;;;;5038319;27;20936;-75
2022/07/09 06:21:10;;;;;;;1999.90;999.90;;;;;;;;;;5032316;27;20463;-76
2022/07/09 06:23:38;;;;;;;1999.90;999.90;;;;;;;;;;5031195;27;22880;-73
2022/07/09 06:26:06;;;;;;;1999.90;999.90;;;;;;;;;;5040884;27;20535;-74
2022/07/09 06:28:36;;;;;;;1999.90;999.90;;;;;;;;;;5041305;27;20502;-75
2022/07/09 06:31:06;;;;;;;1999.90;999.90;;;;;;;;;;5034518;27;20418;-74
2022/07/09 06:33:34;;;;;;;1999.90;999.90;;;;;;;;;;5041531;27;20420;-75
2022/07/09 06:36:01;;;;;;;1999.90;999.90;;;;;;;;;;5046264;27;20401;-75
2022/07/09 06:38:30;;;;;;;1999.90;999.90;;;;;;;;;;5043444;27;20401;-75
2022/07/09 06:40:58;;;;;;;1999.90;999.90;;;;;;;;;;5043340;27;20410;-75
2022/07/09 06:43:25;;;;;;;1999.90;999.90;;;;;;;;;;5043442;27;20417;-75
2022/07/09 06:45:58;;;;;;;1999.90;999.90;;;;;;;;;;5025501;27;20881;-74
2022/07/09 06:48:27;;;;;;;1999.90;999.90;;;;;;;;;;5038280;27;20422;-75
2022/07/09 06:50:55;;;;;;;1999.90;999.90;;;;;;;;;;5024986;27;20558;-75
2022/07/09 06:53:23;;;;;;;1999.90;999.90;;;;;;;;;;5029078;27;20412;-75
2022/07/09 06:55:51;;;;;;;1999.90;999.90;;;;;;;;;;5033830;27;20466;-74
2022/07/09 06:58:19;;;;;;;1999.90;999.90;;;;;;;;;;5041358;27;20439;-73
2022/07/09 07:00:46;;;;;;;1999.90;999.90;;;;;;;;;;5043125;27;20421;-74
2022/07/09 07:03:15;;;;;;;1999.90;999.90;;;;;;;;;;5044802;27;20486;-74
2022/07/09 07:05:44;;;;;;;1999.90;999.90;;;;;;;;;;5040934;27;20402;-73
2022/07/09 07:08:12;;;;;;;1999.90;999.90;;;;;;;;;;5041057;27;21573;-78
2022/07/09 07:10:40;;;;;;;1999.90;999.90;;;;;;;;;;5041353;27;20440;-76
2022/07/09 07:13:10;;;;;;;1999.90;999.90;;;;;;;;;;5029647;27;20369;-75
2022/07/09 07:15:38;;;;;;;1999.90;999.90;;;;;;;;;;5048911;27;22176;-75
2022/07/09 07:18:06;;;;;;;1999.90;999.90;;;;;;;;;;5048937;27;20399;-73
2022/07/09 07:20:34;;;;;;;1999.90;999.90;;;;;;;;;;5042234;27;20420;-74
2022/07/09 07:23:03;;;;;;;1999.90;999.90;;;;;;;;;;5044505;27;20403;-73
2022/07/09 07:25:30;;;;;;;1999.90;999.90;;;;;;;;;;5045026;27;20869;-77
2022/07/09 07:27:59;;;;;;;1999.90;999.90;;;;;;;;;;5047816;27;20400;-76
2022/07/09 07:30:26;;;;;;;1999.90;999.90;;;;;;;;;;5059149;27;20420;-73
2022/07/09 07:32:54;;;;;;;1999.90;999.90;;;;;;;;;;5039913;27;20473;-74
2022/07/09 07:35:22;;;;;;;1999.90;999.90;;;;;;;;;;5049612;27;20408;-74
2022/07/09 07:37:50;;;;;;;1999.90;999.90;;;;;;;;;;5050319;27;20453;-75
2022/07/09 07:40:19;;;;;;;1999.90;999.90;;;;;;;;;;5047281;27;20897;-73
2022/07/09 07:42:47;;;;;;;1999.90;999.90;;;;;;;;;;5049056;27;20426;-75
2022/07/09 07:45:15;;;;;;;1999.90;999.90;;;;;;;;;;5049914;27;21308;-74
2022/07/09 07:47:42;;;;;;;1999.90;999.90;;;;;;;;;;5048718;27;20395;-74
2022/07/09 07:50:10;;;;;;;1999.90;999.90;;;;;;;;;;5049540;27;20970;-75
2022/07/09 07:52:38;;;;;;;1999.90;999.90;;;;;;;;;;5047929;27;20390;-72
2022/07/09 07:55:13;;;;;;;1999.90;999.90;;;;;;;;;;5044682;27;20384;-75
2022/07/09 07:57:42;;;;;;;1999.90;999.90;;;;;;;;;;5045623;27;20495;-76
2022/07/09 08:00:11;;;;;;;1999.90;999.90;;;;;;;;;;5048367;27;20415;-74
2022/07/09 08:02:39;;;;;;;1999.90;999.90;;;;;;;;;;5049501;27;20489;-75
2022/07/09 08:05:07;;;;;;;1999.90;999.90;;;;;;;;;;5051855;27;20411;-73
2022/07/09 08:07:35;;;;;;;1999.90;999.90;;;;;;;;;;5054821;27;20403;-74
2022/07/09 08:10:03;;;;;;;1999.90;999.90;;;;;;;;;;5049427;27;20399;-74
2022/07/09 08:12:31;;;;;;;1999.90;999.90;;;;;;;;;;5049245;27;20494;-72
2022/07/09 08:15:00;;;;;;;1999.90;999.90;;;;;;;;;;5051681;27;20417;-74
2022/07/09 08:17:28;;;;;;;1999.90;999.90;;;;;;;;;;5050356;27;20411;-73
2022/07/09 08:19:56;;;;;;;1999.90;999.90;;;;;;;;;;5053638;27;20888;-73
2022/07/09 08:22:23;;;;;;;1999.90;999.90;;;;;;;;;;5044999;27;20403;-72
2022/07/09 08:24:51;;;;;;;1999.90;999.90;;;;;;;;;;5059829;27;20406;-75
2022/07/09 08:27:19;;;;;;;1999.90;999.90;;;;;;;;;;5048965;27;20392;-74
2022/07/09 08:29:48;;;;;;;1999.90;999.90;;;;;;;;;;5035334;27;20422;-75
2022/07/09 08:32:17;;;;;;;1999.90;999.90;;;;;;;;;;5050908;27;20406;-76
2022/07/09 08:34:45;;;;;;;1999.90;999.90;;;;;;;;;;5055074;27;20405;-76
2022/07/09 08:37:13;;;;;;;1999.90;999.90;;;;;;;;;;5035213;27;20387;-73
2022/07/09 08:39:41;;;;;;;1999.90;999.90;;;;;;;;;;5051778;27;20531;-75
2022/07/09 08:42:09;;;;;;;1999.90;999.90;;;;;;;;;;5050912;27;20421;-79
2022/07/09 08:44:38;;;;;;;1999.90;999.90;;;;;;;;;;5048648;27;20448;-72
2022/07/09 08:47:06;;;;;;;1999.90;999.90;;;;;;;;;;5048487;27;20431;-72
2022/07/09 08:49:36;;;;;;;1999.90;999.90;;;;;;;;;;5048515;27;20501;-75
2022/07/09 08:52:05;;;;;;;1999.90;999.90;;;;;;;;;;5044946;27;20401;-74
2022/07/09 08:54:35;;;;;;;1999.90;999.90;;;;;;;;;;5031639;27;20442;-74
2022/07/09 08:57:03;;;;;;;1999.90;999.90;;;;;;;;;;5047765;27;20407;-74
2022/07/09 08:59:31;;;;;;;1999.90;999.90;;;;;;;;;;5050356;27;20417;-75
2022/07/09 09:01:58;;;;;;;1999.90;999.90;;;;;;;;;;5046575;27;20404;-74
2022/07/09 09:04:26;;;;;;;1999.90;999.90;;;;;;;;;;5045176;27;20436;-77
2022/07/09 09:06:55;;;;;;;1999.90;999.90;;;;;;;;;;5044195;27;20435;-75
2022/07/09 09:09:23;;;;;;;1999.90;999.90;;;;;;;;;;5045433;27;20409;-74
2022/07/09 09:11:52;;;;;;;1999.90;999.90;;;;;;;;;;5041017;27;20417;-72
2022/07/09 09:14:21;;;;;;;1999.90;999.90;;;;;;;;;;5039017;27;20411;-73
2022/07/09 09:16:49;;;;;;;1999.90;999.90;;;;;;;;;;5046166;27;20403;-73
2022/07/09 09:19:17;;;;;;;1999.90;999.90;;;;;;;;;;5049265;27;20977;-74
2022/07/09 09:21:44;;;;;;;1999.90;999.90;;;;;;;;;;5047069;27;20398;-74
2022/07/09 09:24:22;;;;;;;1999.90;999.90;;;;;;;;;;5043565;27;21013;-74
2022/07/09 09:26:50;;;;;;;1999.90;999.90;;;;;;;;;;5042059;27;21521;-74
2022/07/09 09:29:18;;;;;;;1999.90;999.90;;;;;;;;;;5043446;27;20493;-74
2022/07/09 09:31:46;;;;;;;1999.90;999.90;;;;;;;;;;5043917;27;20634;-74
2022/07/09 09:34:15;;;;;;;1999.90;999.90;;;;;;;;;;5050628;27;20410;-74
2022/07/09 09:36:43;;;;;;;1999.90;999.90;;;;;;;;;;5051327;27;20387;-74
2022/07/09 09:39:12;;;;;;;1999.90;999.90;;;;;;;;;;5049640;27;20432;-73
2022/07/09 09:41:42;;;;;;;1999.90;999.90;;;;;;;;;;5052526;27;20368;-74
2022/07/09 09:44:10;;;;;;;1999.90;999.90;;;;;;;;;;5048853;27;20421;-75
2022/07/09 09:46:38;;;;;;;1999.90;999.90;;;;;;;;;;5047767;27;20399;-73
2022/07/09 09:49:07;;;;;;;1999.90;999.90;;;;;;;;;;5040620;27;20448;-74
2022/07/09 09:51:39;;;;;;;1999.90;999.90;;;;;;;;;;5042224;27;20464;-74
2022/07/09 09:54:07;;;;;;;1999.90;999.90;;;;;;;;;;5045170;27;20431;-74
2022/07/09 09:56:35;;;;;;;1999.90;999.90;;;;;;;;;;5047543;27;20407;-75
2022/07/09 09:59:04;;;;;;;1999.90;999.90;;;;;;;;;;5049172;27;20460;-75
2022/07/09 10:01:32;;;;;;;1999.90;999.90;;;;;;;;;;5028494;27;20387;-74
2022/07/09 10:04:00;;;;;;;1999.90;999.90;;;;;;;;;;5047464;27;20411;-75
2022/07/09 10:06:28;;;;;;;1999.90;999.90;;;;;;;;;;5049124;27;20508;-74
2022/07/09 10:08:56;;;;;;;1999.90;999.90;;;;;;;;;;5049643;27;20424;-75
2022/07/09 10:11:24;;;;;;;1999.90;999.90;;;;;;;;;;5044728;27;21590;-75
2022/07/09 10:13:53;;;;;;;1999.90;999.90;;;;;;;;;;5057619;27;20461;-74
2022/07/09 10:16:33;;;;;;;1999.90;999.90;;;;;;;;;;5050519;27;20387;-74
2022/07/09 10:19:01;;;;;;;1999.90;999.90;;;;;;;;;;5051742;27;20453;-74
2022/07/09 10:21:36;;;;;;;1999.90;999.90;;;;;;;;;;5045227;27;20396;-73
2022/07/09 10:24:05;;;;;;;1999.90;999.90;;;;;;;;;;5050868;27;20864;-73
2022/07/09 10:26:44;;;;;;;1999.90;999.90;;;;;;;;;;5050689;27;20848;-74
2022/07/09 10:29:18;;;;;;;1999.90;999.90;;;;;;;;;;5050557;27;20498;-74
2022/07/09 10:31:48;;;;;;;1999.90;999.90;;;;;;;;;;5049615;27;20408;-74
2022/07/09 10:34:51;;;;;;;1999.90;999.90;;;;;;;;;;5048361;27;32813;-74
2022/07/09 10:37:19;;;;;;;1999.90;999.90;;;;;;;;;;5002794;28;20365;-74
2022/07/09 10:39:53;;;;;;;1999.90;999.90;;;;;;;;;;4969947;28;20966;-73
2022/07/09 10:42:23;;;;;;;1999.90;999.90;;;;;;;;;;5025947;27;20375;-73
2022/07/09 10:44:51;;;;;;;1999.90;999.90;;;;;;;;;;5048646;27;20399;-74
2022/07/09 10:47:20;;;;;;;1999.90;999.90;;;;;;;;;;5051673;27;20411;-74
2022/07/09 10:49:48;;;;;;;1999.90;999.90;;;;;;;;;;5055038;27;20796;-74
2022/07/09 10:52:15;;;;;;;1999.90;999.90;;;;;;;;;;5051102;27;20405;-73
2022/07/09 10:54:46;;;;;;;1999.90;999.90;;;;;;;;;;5049456;27;20412;-74
2022/07/09 10:57:14;;;;;;;1999.90;999.90;;;;;;;;;;5052114;27;20397;-73
2022/07/09 10:59:46;;;;;;;1999.90;999.90;;;;;;;;;;5052243;27;20724;-75
2022/07/09 11:02:22;;;;;;;1999.90;999.90;;;;;;;;;;5042415;27;21741;-74
2022/07/09 11:04:52;;;;;;;1999.90;999.90;;;;;;;;;;5046353;27;20876;-75
2022/07/09 11:07:20;;;;;;;1999.90;999.90;;;;;;;;;;5042865;27;21543;-74
2022/07/09 11:09:48;;;;;;;1999.90;999.90;;;;;;;;;;5060304;27;20454;-74
2022/07/09 11:12:16;;;;;;;1999.90;999.90;;;;;;;;;;5028349;27;20484;-74
2022/07/09 11:14:44;;;;;;;1999.90;999.90;;;;;;;;;;5049390;27;20494;-74
2022/07/09 11:17:15;;;;;;;1999.90;999.90;;;;;;;;;;5038215;27;20924;-73
2022/07/09 11:19:44;;;;;;;1999.90;999.90;;;;;;;;;;5049959;27;20433;-74
2022/07/09 11:22:12;;;;;;;1999.90;999.90;;;;;;;;;;5047395;27;21010;-74
2022/07/09 11:24:39;;;;;;;1999.90;999.90;;;;;;;;;;5049774;27;20471;-74
2022/07/09 11:27:08;;;;;;;1999.90;999.90;;;;;;;;;;5047713;27;20391;-75
2022/07/09 11:29:36;;;;;;;1999.90;999.90;;;;;;;;;;5051035;27;21175;-74
2022/07/09 11:32:04;;;;;;;1999.90;999.90;;;;;;;;;;5031518;27;20403;-74
2022/07/09 11:34:32;;;;;;;1999.90;999.90;;;;;;;;;;5049320;27;20419;-73
2022/07/09 11:37:01;;;;;;;1999.90;999.90;;;;;;;;;;5050661;27;20912;-74
2022/07/09 11:39:30;;;;;;;1999.90;999.90;;;;;;;;;;5052536;27;20414;-74
2022/07/09 11:41:58;;;;;;;1999.90;999.90;;;;;;;;;;5043693;27;20392;-74
2022/07/09 11:44:27;;;;;;;1999.90;999.90;;;;;;;;;;5046004;27;20922;-72
2022/07/09 11:47:05;;;;;;;1999.90;999.90;;;;;;;;;;5044493;27;20430;-74
2022/07/09 11:49:33;;;;;;;1999.90;999.90;;;;;;;;;;5052875;27;20500;-74
2022/07/09 11:52:02;;;;;;;1999.90;999.90;;;;;;;;;;5046171;27;20402;-73
2022/07/09 11:54:30;;;;;;;1999.90;999.90;;;;;;;;;;5048340;27;20407;-74
2022/07/09 11:56:58;;;;;;;1999.90;999.90;;;;;;;;;;5048196;27;20470;-73
2022/07/09 11:59:26;;;;;;;1999.90;999.90;;;;;;;;;;5043346;27;20461;-73
2022/07/09 12:01:55;;;;;;;1999.90;999.90;;;;;;;;;;5042428;27;20403;-74
2022/07/09 12:04:23;;;;;;;1999.90;999.90;;;;;;;;;;5042795;27;20422;-72
2022/07/09 12:06:52;;;;;;;1999.90;999.90;;;;;;;;;;5039194;27;20411;-73
2022/07/09 12:09:30;;;;;;;1999.90;999.90;;;;;;;;;;5043928;27;20418;-73
2022/07/09 12:11:58;;;;;;;1999.90;999.90;;;;;;;;;;5041465;27;20527;-73
2022/07/09 12:14:26;;;;;;;1999.90;999.90;;;;;;;;;;5045872;27;20426;-74
2022/07/09 12:16:54;;;;;;;1999.90;999.90;;;;;;;;;;5046907;27;20447;-72
2022/07/09 12:19:22;;;;;;;1999.90;999.90;;;;;;;;;;5044399;27;20394;-70
2022/07/09 12:21:50;;;;;;;1999.90;999.90;;;;;;;;;;5035685;27;20399;-68
2022/07/09 12:24:25;;;;;;;1999.90;999.90;;;;;;;;;;5034992;27;20395;-68
2022/07/09 12:26:54;;;;;;;1999.90;999.90;;;;;;;;;;5038908;27;20413;-68
2022/07/09 12:29:42;;;;;;;1999.90;999.90;;;;;;;;;;5043999;27;20409;-69
2022/07/09 12:32:10;;;;;;;1999.90;999.90;;;;;;;;;;5042927;27;20971;-73
2022/07/09 12:34:37;;;;;;;1999.90;999.90;;;;;;;;;;5043431;27;20406;-70
2022/07/09 12:37:06;;;;;;;1999.90;999.90;;;;;;;;;;5023955;27;20908;-70
2022/07/09 12:39:34;;;;;;;1999.90;999.90;;;;;;;;;;5045370;27;20431;-70
2022/07/09 12:42:03;;;;;;;1999.90;999.90;;;;;;;;;;5043074;27;20394;-70
2022/07/09 12:44:31;;;;;;;1999.90;999.90;;;;;;;;;;5040183;27;20383;-71
2022/07/09 12:46:58;;;;;;;1999.90;999.90;;;;;;;;;;5041222;27;20391;-72
2022/07/09 12:49:26;;;;;;;1999.90;999.90;;;;;;;;;;5043092;27;20407;-71
2022/07/09 12:51:54;;;;;;;1999.90;999.90;;;;;;;;;;5036138;27;20446;-74
2022/07/09 12:54:22;;;;;;;1999.90;999.90;;;;;;;;;;5039520;27;20418;-72
2022/07/09 12:56:50;;;;;;;1999.90;999.90;;;;;;;;;;5042064;27;20394;-71
2022/07/09 12:59:37;;;;;;;1999.90;999.90;;;;;;;;;;5039672;27;20421;-71
2022/07/09 13:02:05;;;;;;;1999.90;999.90;;;;;;;;;;5035574;27;20574;-71
2022/07/09 13:04:34;;;;;;;1999.90;999.90;;;;;;;;;;5031213;27;20423;-70
2022/07/09 13:07:02;;;;;;;1999.90;999.90;;;;;;;;;;5036632;27;20891;-70
2022/07/09 13:09:30;;;;;;;1999.90;999.90;;;;;;;;;;5039693;27;20414;-74
2022/07/09 13:11:57;;;;;;;1999.90;999.90;;;;;;;;;;5041079;27;20400;-76
2022/07/09 13:14:25;;;;;;;1999.90;999.90;;;;;;;;;;5040158;27;21966;-71
2022/07/09 13:16:54;;;;;;;1999.90;999.90;;;;;;;;;;5026214;27;20412;-72
2022/07/09 13:19:42;;;;;;;1999.90;999.90;;;;;;;;;;5045744;27;20417;-75
2022/07/09 13:22:10;;;;;;;1999.90;999.90;;;;;;;;;;5056175;27;20399;-75
2022/07/09 13:24:38;;;;;;;1999.90;999.90;;;;;;;;;;5027021;27;20407;-75
2022/07/09 13:27:08;;;;;;;1999.90;999.90;;;;;;;;;;5044423;27;20417;-75
2022/07/09 13:29:36;;;;;;;1999.90;999.90;;;;;;;;;;5027621;27;20981;-76
2022/07/09 13:32:06;;;;;;;1999.90;999.90;;;;;;;;;;5043962;27;20411;-75
2022/07/09 13:34:33;;;;;;;1999.90;999.90;;;;;;;;;;5042890;27;20416;-75
2022/07/09 13:37:01;;;;;;;1999.90;999.90;;;;;;;;;;5048370;27;20406;-73
2022/07/09 13:39:29;;;;;;;1999.90;999.90;;;;;;;;;;5043107;27;20537;-71
2022/07/09 13:41:57;;;;;;;1999.90;999.90;;;;;;;;;;5035879;27;20940;-73
2022/07/09 13:44:25;;;;;;;1999.90;999.90;;;;;;;;;;5040215;27;21012;-74
2022/07/09 13:46:54;;;;;;;1999.90;999.90;;;;;;;;;;5038714;27;20406;-73
2022/07/09 13:49:23;;;;;;;1999.90;999.90;;;;;;;;;;5043683;27;20414;-70